Time;durP1;ratioP1;P1;durP2;ratioP2;P2;SDS_P1;SDS_P2;PMS_P1;PMS_P2;Temp;Humidity;BMP_temperature;BMP_pressure;BME280_temperature;BME280_humidity;BME280_pressure;Samples;Min_cycle;Max_cycle;Signal;HPM_P1;HPM_P2
2024/01/29 00:01:29;;;;;;;5.83;2.77;;;;;;;;;;5077052;28;20182;-71
2024/01/29 00:03:55;;;;;;;6.27;2.77;;;;;;;;;;5058533;28;20209;-72
2024/01/29 00:06:21;;;;;;;4.67;2.80;;;;;;;;;;5077073;28;20561;-71
2024/01/29 00:08:47;;;;;;;6.37;3.00;;;;;;;;;;5076771;28;20200;-72
2024/01/29 00:11:13;;;;;;;4.57;2.50;;;;;;;;;;5076605;28;20182;-71
2024/01/29 00:13:39;;;;;;;5.43;3.20;;;;;;;;;;5076379;28;20306;-71
2024/01/29 00:16:05;;;;;;;4.60;2.87;;;;;;;;;;5059018;28;20181;-72
2024/01/29 00:18:31;;;;;;;3.17;2.40;;;;;;;;;;5076370;28;20670;-72
2024/01/29 00:20:57;;;;;;;3.73;2.83;;;;;;;;;;5076668;28;20699;-72
2024/01/29 00:23:23;;;;;;;5.03;2.93;;;;;;;;;;5076236;28;20247;-71
2024/01/29 00:25:49;;;;;;;4.47;2.50;;;;;;;;;;5076696;28;20181;-71
2024/01/29 00:28:15;;;;;;;3.80;2.50;;;;;;;;;;5076793;28;20178;-71
2024/01/29 00:30:41;;;;;;;4.97;3.60;;;;;;;;;;5076073;28;20184;-71
2024/01/29 00:33:07;;;;;;;5.67;3.00;;;;;;;;;;5076093;28;20229;-71
2024/01/29 00:35:33;;;;;;;3.77;2.37;;;;;;;;;;5076294;28;20181;-71
2024/01/29 00:37:59;;;;;;;3.77;2.63;;;;;;;;;;5058135;28;20682;-71
2024/01/29 00:40:25;;;;;;;5.87;2.87;;;;;;;;;;5075842;28;20178;-71
2024/01/29 00:42:51;;;;;;;8.73;3.03;;;;;;;;;;5075683;28;20197;-71
2024/01/29 00:45:17;;;;;;;5.47;2.93;;;;;;;;;;5075767;28;20232;-71
2024/01/29 00:47:43;;;;;;;4.73;3.00;;;;;;;;;;5076357;28;20169;-71
2024/01/29 00:50:10;;;;;;;8.40;3.33;;;;;;;;;;5076010;28;20223;-71
2024/01/29 00:52:35;;;;;;;7.27;2.90;;;;;;;;;;5074510;28;20202;-71
2024/01/29 00:55:01;;;;;;;6.00;3.47;;;;;;;;;;5075693;28;20555;-71
2024/01/29 00:57:27;;;;;;;6.37;3.20;;;;;;;;;;5075662;28;20289;-71
2024/01/29 00:59:55;;;;;;;6.47;3.50;;;;;;;;;;5057872;28;20190;-71
2024/01/29 01:02:21;;;;;;;6.93;3.20;;;;;;;;;;5075769;28;20178;-71
2024/01/29 01:04:47;;;;;;;5.57;3.20;;;;;;;;;;5075644;28;20218;-71
2024/01/29 01:07:13;;;;;;;5.70;3.37;;;;;;;;;;5076012;28;20177;-71
2024/01/29 01:09:39;;;;;;;5.83;3.23;;;;;;;;;;5075323;28;20174;-71
2024/01/29 01:12:05;;;;;;;3.93;3.10;;;;;;;;;;5075207;28;20193;-71
2024/01/29 01:14:31;;;;;;;4.27;3.30;;;;;;;;;;5075284;28;20279;-71
2024/01/29 01:16:57;;;;;;;7.27;3.60;;;;;;;;;;5058680;28;20182;-71
2024/01/29 01:19:23;;;;;;;10.83;3.60;;;;;;;;;;5079095;28;20181;-71
2024/01/29 01:21:49;;;;;;;4.67;3.17;;;;;;;;;;5076271;28;20682;-71
2024/01/29 01:24:15;;;;;;;5.90;3.33;;;;;;;;;;5075142;28;20761;-71
2024/01/29 01:26:40;;;;;;;11.60;3.60;;;;;;;;;;5075324;28;20232;-71
2024/01/29 01:29:06;;;;;;;6.67;3.30;;;;;;;;;;5074526;28;20180;-69
2024/01/29 01:31:32;;;;;;;6.23;3.23;;;;;;;;;;5074714;28;20208;-71
2024/01/29 01:33:58;;;;;;;6.00;3.60;;;;;;;;;;5074211;28;20197;-71
2024/01/29 01:36:24;;;;;;;6.90;3.33;;;;;;;;;;5074199;28;20189;-71
2024/01/29 01:38:50;;;;;;;4.97;2.83;;;;;;;;;;5074314;28;20182;-71
2024/01/29 01:41:16;;;;;;;5.60;3.30;;;;;;;;;;5074212;28;20211;-71
2024/01/29 01:43:42;;;;;;;6.47;3.30;;;;;;;;;;5074587;28;20565;-71
2024/01/29 01:46:08;;;;;;;6.83;3.50;;;;;;;;;;5074628;28;20640;-71
2024/01/29 01:48:34;;;;;;;6.77;3.50;;;;;;;;;;5074424;28;20608;-71
2024/01/29 01:51:01;;;;;;;6.30;3.70;;;;;;;;;;5073932;28;20636;-71
2024/01/29 01:53:30;;;;;;;7.07;3.57;;;;;;;;;;5073869;28;20194;-71
2024/01/29 01:55:56;;;;;;;4.80;3.27;;;;;;;;;;5074365;28;20573;-71
2024/01/29 01:58:23;;;;;;;4.80;3.30;;;;;;;;;;5073742;28;20261;-71
2024/01/29 02:00:49;;;;;;;4.63;3.20;;;;;;;;;;5073763;28;20520;-71
2024/01/29 02:03:15;;;;;;;7.07;3.80;;;;;;;;;;5073696;28;20272;-71
2024/01/29 02:05:41;;;;;;;6.43;3.07;;;;;;;;;;5073393;28;20213;-71
2024/01/29 02:08:08;;;;;;;11.77;5.20;;;;;;;;;;5074073;28;20182;-71
2024/01/29 02:10:34;;;;;;;7.90;4.30;;;;;;;;;;5055556;28;20181;-71
2024/01/29 02:13:00;;;;;;;8.27;4.67;;;;;;;;;;5055268;28;20209;-71
2024/01/29 02:15:26;;;;;;;6.23;3.30;;;;;;;;;;5073675;28;20182;-71
2024/01/29 02:17:52;;;;;;;5.23;3.80;;;;;;;;;;5073616;28;20182;-71
2024/01/29 02:20:18;;;;;;;9.07;5.00;;;;;;;;;;5055599;28;20565;-72
2024/01/29 02:22:44;;;;;;;5.87;4.83;;;;;;;;;;5073700;28;20594;-71
2024/01/29 02:25:10;;;;;;;8.57;3.40;;;;;;;;;;5055380;28;20679;-71
2024/01/29 02:27:36;;;;;;;5.00;3.17;;;;;;;;;;5073526;28;20605;-70
2024/01/29 02:30:04;;;;;;;4.87;3.30;;;;;;;;;;5073526;28;20181;-71
2024/01/29 02:32:30;;;;;;;5.77;3.50;;;;;;;;;;5073386;28;20170;-71
2024/01/29 02:34:56;;;;;;;4.27;3.20;;;;;;;;;;5073456;28;20602;-71
2024/01/29 02:37:22;;;;;;;4.40;3.07;;;;;;;;;;5073178;28;20185;-71
2024/01/29 02:39:50;;;;;;;5.47;3.70;;;;;;;;;;5072938;28;20182;-71
2024/01/29 02:42:17;;;;;;;5.80;4.40;;;;;;;;;;5073171;28;20644;-71
2024/01/29 02:44:43;;;;;;;4.23;3.40;;;;;;;;;;5073350;28;20202;-71
2024/01/29 02:47:09;;;;;;;5.37;3.37;;;;;;;;;;5073194;28;20251;-71
2024/01/29 02:49:35;;;;;;;5.07;3.40;;;;;;;;;;5055084;28;20263;-71
2024/01/29 02:52:01;;;;;;;5.23;3.20;;;;;;;;;;5055086;28;20198;-71
2024/01/29 02:54:27;;;;;;;5.50;3.30;;;;;;;;;;5072973;28;20713;-71
2024/01/29 02:56:53;;;;;;;6.17;4.03;;;;;;;;;;5072958;28;20178;-71
2024/01/29 02:59:19;;;;;;;5.40;3.10;;;;;;;;;;5073336;28;20181;-71
2024/01/29 03:01:44;;;;;;;5.63;3.53;;;;;;;;;;5073016;28;20289;-71
2024/01/29 03:04:10;;;;;;;5.57;3.63;;;;;;;;;;5054892;28;20205;-70
2024/01/29 03:06:37;;;;;;;7.23;3.70;;;;;;;;;;5054844;28;20174;-71
2024/01/29 03:09:02;;;;;;;7.30;3.40;;;;;;;;;;5072890;28;20271;-71
2024/01/29 03:11:28;;;;;;;8.67;3.13;;;;;;;;;;5054937;28;20663;-71
2024/01/29 03:13:54;;;;;;;11.00;8.00;;;;;;;;;;5054950;28;20217;-71
2024/01/29 03:16:20;;;;;;;5.73;3.97;;;;;;;;;;5056241;28;20610;-71
2024/01/29 03:18:46;;;;;;;7.47;4.30;;;;;;;;;;5059179;28;20186;-71
2024/01/29 03:21:13;;;;;;;6.90;3.37;;;;;;;;;;5076855;28;20226;-71
2024/01/29 03:23:39;;;;;;;8.30;3.57;;;;;;;;;;5058651;28;20641;-71
2024/01/29 03:26:05;;;;;;;3.87;3.07;;;;;;;;;;5076721;28;20177;-71
2024/01/29 03:28:31;;;;;;;5.10;3.90;;;;;;;;;;5058823;28;20178;-71
2024/01/29 03:30:57;;;;;;;7.90;4.10;;;;;;;;;;5058751;28;20321;-71
2024/01/29 03:33:23;;;;;;;7.03;3.80;;;;;;;;;;5058704;28;20190;-71
2024/01/29 03:35:49;;;;;;;6.47;3.80;;;;;;;;;;5076529;28;20204;-71
2024/01/29 03:38:15;;;;;;;7.70;3.77;;;;;;;;;;5076513;28;20170;-71
2024/01/29 03:40:41;;;;;;;6.50;3.77;;;;;;;;;;5058449;28;20192;-71
2024/01/29 03:43:07;;;;;;;5.77;3.97;;;;;;;;;;5076527;28;20706;-71
2024/01/29 03:45:33;;;;;;;7.03;4.20;;;;;;;;;;5058558;28;20216;-71
2024/01/29 03:47:59;;;;;;;7.67;4.83;;;;;;;;;;5076131;28;20200;-71
2024/01/29 03:50:25;;;;;;;7.93;3.97;;;;;;;;;;5060696;28;20272;-71
2024/01/29 03:52:51;;;;;;;7.00;4.90;;;;;;;;;;5061015;28;20198;-71
2024/01/29 03:55:16;;;;;;;6.47;3.70;;;;;;;;;;5076426;28;20192;-71
2024/01/29 03:57:43;;;;;;;5.13;3.57;;;;;;;;;;5076214;28;20182;-71
2024/01/29 04:00:09;;;;;;;6.00;3.60;;;;;;;;;;5076943;28;20201;-71
2024/01/29 04:02:35;;;;;;;6.50;3.80;;;;;;;;;;5076362;28;21648;-71
2024/01/29 04:05:01;;;;;;;10.37;3.80;;;;;;;;;;5076583;28;20760;-71
2024/01/29 04:07:27;;;;;;;3.93;2.83;;;;;;;;;;5077196;28;20170;-71
2024/01/29 04:09:53;;;;;;;4.17;3.23;;;;;;;;;;5062383;28;20251;-70
2024/01/29 04:12:19;;;;;;;5.33;3.07;;;;;;;;;;5080690;28;20178;-70
2024/01/29 04:14:46;;;;;;;4.80;3.00;;;;;;;;;;5062346;28;20269;-70
2024/01/29 04:17:12;;;;;;;6.17;3.23;;;;;;;;;;5059563;28;20655;-71
2024/01/29 04:19:39;;;;;;;7.80;3.10;;;;;;;;;;5058675;28;20190;-71
2024/01/29 04:22:05;;;;;;;4.93;3.23;;;;;;;;;;5077385;28;20253;-71
2024/01/29 04:24:31;;;;;;;5.73;3.00;;;;;;;;;;5077142;28;20206;-70
2024/01/29 04:26:57;;;;;;;6.90;3.43;;;;;;;;;;5076191;28;20174;-71
2024/01/29 04:29:23;;;;;;;4.10;3.00;;;;;;;;;;5076274;28;20199;-71
2024/01/29 04:31:49;;;;;;;5.13;3.93;;;;;;;;;;5075966;28;20170;-71
2024/01/29 04:34:15;;;;;;;4.10;3.10;;;;;;;;;;5057985;28;20212;-67
2024/01/29 04:36:41;;;;;;;4.43;3.17;;;;;;;;;;5057889;28;20174;-68
2024/01/29 04:39:07;;;;;;;3.97;2.80;;;;;;;;;;5057630;28;20373;-68
2024/01/29 04:41:33;;;;;;;3.80;2.80;;;;;;;;;;5057829;28;20190;-67
2024/01/29 04:43:59;;;;;;;4.40;2.70;;;;;;;;;;5057361;28;20209;-68
2024/01/29 04:46:25;;;;;;;4.33;3.10;;;;;;;;;;5075813;28;20220;-68
2024/01/29 04:48:51;;;;;;;4.37;2.50;;;;;;;;;;5057698;28;20605;-68
2024/01/29 04:51:17;;;;;;;4.13;2.67;;;;;;;;;;5075834;28;20231;-69
2024/01/29 04:53:43;;;;;;;4.43;2.70;;;;;;;;;;5076200;28;20672;-68
2024/01/29 04:56:09;;;;;;;4.43;3.10;;;;;;;;;;5058988;28;20177;-68
2024/01/29 04:58:35;;;;;;;8.67;3.23;;;;;;;;;;5078775;28;20173;-67
2024/01/29 05:01:01;;;;;;;5.47;2.80;;;;;;;;;;5083884;28;20204;-68
2024/01/29 05:03:27;;;;;;;3.43;2.87;;;;;;;;;;5066528;28;20201;-68
2024/01/29 05:05:54;;;;;;;3.50;3.00;;;;;;;;;;5080507;28;20235;-68
2024/01/29 05:08:20;;;;;;;3.57;2.97;;;;;;;;;;5075702;28;20180;-69
2024/01/29 05:10:46;;;;;;;7.90;3.50;;;;;;;;;;5057512;28;20174;-69
2024/01/29 05:13:12;;;;;;;5.37;3.30;;;;;;;;;;5075201;28;20292;-69
2024/01/29 05:15:38;;;;;;;3.83;3.00;;;;;;;;;;5075307;28;20182;-68
2024/01/29 05:18:04;;;;;;;4.50;3.20;;;;;;;;;;5056767;28;20189;-69
2024/01/29 05:20:30;;;;;;;4.10;3.07;;;;;;;;;;5078829;28;20257;-68
2024/01/29 05:22:56;;;;;;;7.47;3.33;;;;;;;;;;5077724;28;20202;-68
2024/01/29 05:25:23;;;;;;;5.47;3.57;;;;;;;;;;5079268;28;20525;-68
2024/01/29 05:27:49;;;;;;;5.97;2.93;;;;;;;;;;5083648;28;20174;-68
2024/01/29 05:30:15;;;;;;;4.27;3.13;;;;;;;;;;5058672;28;20182;-67
2024/01/29 05:32:41;;;;;;;7.87;3.63;;;;;;;;;;5056966;28;20198;-68
2024/01/29 05:35:07;;;;;;;4.83;3.57;;;;;;;;;;5074199;28;20534;-67
2024/01/29 05:37:34;;;;;;;11.93;4.40;;;;;;;;;;5073958;28;20189;-68
2024/01/29 05:40:04;;;;;;;11.53;4.13;;;;;;;;;;5073642;28;20173;-68
2024/01/29 05:42:30;;;;;;;9.13;4.20;;;;;;;;;;5074119;28;20162;-68
2024/01/29 05:44:56;;;;;;;9.67;4.97;;;;;;;;;;5074108;28;20254;-68
2024/01/29 05:47:25;;;;;;;6.57;3.97;;;;;;;;;;5074213;28;20170;-68
2024/01/29 05:49:51;;;;;;;5.03;4.20;;;;;;;;;;5073975;28;20177;-68
2024/01/29 05:52:17;;;;;;;6.37;3.90;;;;;;;;;;5073764;28;20182;-67
2024/01/29 05:54:43;;;;;;;6.70;4.07;;;;;;;;;;5073539;28;20201;-68
2024/01/29 05:57:12;;;;;;;8.00;4.40;;;;;;;;;;5055573;28;20186;-68
2024/01/29 05:59:41;;;;;;;6.30;4.03;;;;;;;;;;5073624;28;20272;-68
2024/01/29 06:02:07;;;;;;;8.70;3.90;;;;;;;;;;5073540;28;20666;-68
2024/01/29 06:04:33;;;;;;;9.50;3.90;;;;;;;;;;5073308;28;20205;-68
2024/01/29 06:07:00;;;;;;;13.10;3.77;;;;;;;;;;5055340;28;20182;-67
2024/01/29 06:09:26;;;;;;;10.27;4.00;;;;;;;;;;5073280;28;20181;-68
2024/01/29 06:11:54;;;;;;;5.40;3.63;;;;;;;;;;5073340;28;20178;-68
2024/01/29 06:14:20;;;;;;;4.63;3.57;;;;;;;;;;5072675;28;20643;-68
2024/01/29 06:16:46;;;;;;;8.60;4.03;;;;;;;;;;5073318;28;20200;-68
2024/01/29 06:19:17;;;;;;;7.77;3.83;;;;;;;;;;5055083;28;20186;-68
2024/01/29 06:21:46;;;;;;;8.03;3.90;;;;;;;;;;5055308;28;20185;-68
2024/01/29 06:24:12;;;;;;;8.27;4.00;;;;;;;;;;5055145;28;20206;-68
2024/01/29 06:26:38;;;;;;;10.37;3.90;;;;;;;;;;5073029;28;20177;-70
2024/01/29 06:29:04;;;;;;;8.17;3.70;;;;;;;;;;5072916;28;20654;-68
2024/01/29 06:31:30;;;;;;;8.37;4.00;;;;;;;;;;5072975;28;20178;-68
2024/01/29 06:33:57;;;;;;;12.53;4.30;;;;;;;;;;5072744;28;20200;-68
2024/01/29 06:36:23;;;;;;;7.03;4.20;;;;;;;;;;5072893;28;20281;-68
2024/01/29 06:38:49;;;;;;;7.50;4.13;;;;;;;;;;5073125;28;20647;-68
2024/01/29 06:41:25;;;;;;;8.10;4.70;;;;;;;;;;5072719;28;20252;-70
2024/01/29 06:43:51;;;;;;;9.03;4.80;;;;;;;;;;5072811;28;20193;-70
2024/01/29 06:46:17;;;;;;;8.63;4.77;;;;;;;;;;5072859;28;20541;-70
2024/01/29 06:48:43;;;;;;;13.00;4.70;;;;;;;;;;5072946;28;20174;-70
2024/01/29 06:51:09;;;;;;;11.40;4.43;;;;;;;;;;5054683;28;20634;-69
2024/01/29 06:53:35;;;;;;;9.17;5.30;;;;;;;;;;5072653;28;20268;-69
2024/01/29 06:56:04;;;;;;;9.23;5.57;;;;;;;;;;5072611;28;20174;-69
2024/01/29 06:58:30;;;;;;;7.37;4.03;;;;;;;;;;5072886;28;20170;-70
2024/01/29 07:00:56;;;;;;;8.70;4.43;;;;;;;;;;5073105;28;20206;-69
2024/01/29 07:03:22;;;;;;;10.03;4.77;;;;;;;;;;5054673;28;20292;-69
2024/01/29 07:05:48;;;;;;;8.17;4.33;;;;;;;;;;5097434;22;20214;-67
2024/01/29 07:08:16;;;;;;;7.10;4.40;;;;;;;;;;5056236;28;20273;-67
2024/01/29 07:10:42;;;;;;;10.83;4.97;;;;;;;;;;5073212;28;20196;-68
2024/01/29 07:13:08;;;;;;;8.87;4.93;;;;;;;;;;5055342;28;20174;-67
2024/01/29 07:15:34;;;;;;;8.80;4.47;;;;;;;;;;5073465;28;20177;-65
2024/01/29 07:18:00;;;;;;;7.53;4.67;;;;;;;;;;5073697;28;20257;-66
2024/01/29 07:20:38;;;;;;;6.40;4.37;;;;;;;;;;5073955;28;20178;-66
2024/01/29 07:23:08;;;;;;;11.13;4.67;;;;;;;;;;5073967;28;20162;-68
2024/01/29 07:25:34;;;;;;;8.60;4.33;;;;;;;;;;5055279;28;20303;-67
2024/01/29 07:28:03;;;;;;;7.53;4.80;;;;;;;;;;5073924;28;20181;-65
2024/01/29 07:30:29;;;;;;;6.07;4.20;;;;;;;;;;5074361;28;20192;-66
2024/01/29 07:32:55;;;;;;;6.97;4.97;;;;;;;;;;5073720;28;20173;-66
2024/01/29 07:35:21;;;;;;;6.80;5.10;;;;;;;;;;5073450;28;20239;-66
2024/01/29 07:37:47;;;;;;;7.87;4.90;;;;;;;;;;5073277;28;20686;-65
2024/01/29 07:40:13;;;;;;;11.53;5.77;;;;;;;;;;5055435;28;20260;-65
2024/01/29 07:42:39;;;;;;;9.43;6.13;;;;;;;;;;5073093;28;20617;-66
2024/01/29 07:45:05;;;;;;;8.07;5.30;;;;;;;;;;5073727;28;20269;-67
2024/01/29 07:47:31;;;;;;;6.97;5.00;;;;;;;;;;5055587;28;20202;-65
2024/01/29 07:49:57;;;;;;;6.63;5.10;;;;;;;;;;5055385;28;20622;-67
2024/01/29 07:52:23;;;;;;;11.53;5.23;;;;;;;;;;5073991;28;20205;-66
2024/01/29 07:54:49;;;;;;;7.03;4.93;;;;;;;;;;5055361;28;20182;-67
2024/01/29 07:57:15;;;;;;;6.80;4.77;;;;;;;;;;5055295;28;20210;-67
2024/01/29 07:59:41;;;;;;;6.30;4.70;;;;;;;;;;5073640;28;20182;-66
2024/01/29 08:02:09;;;;;;;9.83;4.87;;;;;;;;;;5073871;28;20192;-66
2024/01/29 08:04:35;;;;;;;10.23;5.00;;;;;;;;;;5076697;28;20197;-67
2024/01/29 08:07:01;;;;;;;7.13;4.83;;;;;;;;;;5075368;28;20263;-67
2024/01/29 08:09:27;;;;;;;8.43;5.27;;;;;;;;;;5075515;28;20174;-67
2024/01/29 08:11:53;;;;;;;6.43;4.80;;;;;;;;;;5075298;28;20643;-67
2024/01/29 08:14:19;;;;;;;9.17;4.83;;;;;;;;;;5075562;28;20256;-66
2024/01/29 08:16:45;;;;;;;6.57;4.53;;;;;;;;;;5075165;28;20679;-68
2024/01/29 08:19:11;;;;;;;8.33;4.47;;;;;;;;;;5075222;28;20670;-67
2024/01/29 08:21:37;;;;;;;10.50;5.47;;;;;;;;;;5075438;28;20174;-67
2024/01/29 08:24:04;;;;;;;16.30;6.17;;;;;;;;;;5074896;28;20201;-67
2024/01/29 08:26:30;;;;;;;15.60;6.37;;;;;;;;;;5074769;28;20277;-66
2024/01/29 08:28:56;;;;;;;9.73;5.90;;;;;;;;;;5056839;28;20269;-66
2024/01/29 08:31:23;;;;;;;13.60;6.37;;;;;;;;;;5074789;28;20209;-66
2024/01/29 08:33:49;;;;;;;15.07;7.00;;;;;;;;;;5074652;28;20223;-67
2024/01/29 08:36:15;;;;;;;15.10;6.60;;;;;;;;;;5074601;28;20209;-67
2024/01/29 08:38:42;;;;;;;10.23;6.47;;;;;;;;;;5056887;28;20181;-68
2024/01/29 08:41:08;;;;;;;12.90;5.90;;;;;;;;;;5074746;28;20199;-66
2024/01/29 08:43:34;;;;;;;12.17;5.57;;;;;;;;;;5056640;28;20660;-63
2024/01/29 08:46:00;;;;;;;11.07;5.77;;;;;;;;;;5056316;28;20216;-67
2024/01/29 08:48:26;;;;;;;9.23;5.50;;;;;;;;;;5074479;28;20284;-68
2024/01/29 08:50:53;;;;;;;15.50;6.47;;;;;;;;;;5074935;28;20184;-66
2024/01/29 08:53:19;;;;;;;16.40;6.17;;;;;;;;;;5057113;28;20182;-67
2024/01/29 08:55:45;;;;;;;12.00;5.53;;;;;;;;;;5074402;28;20256;-67
2024/01/29 08:58:11;;;;;;;10.47;5.50;;;;;;;;;;5074325;28;20184;-68
2024/01/29 09:00:37;;;;;;;14.83;6.13;;;;;;;;;;5074790;28;20189;-67
2024/01/29 09:03:03;;;;;;;15.50;6.37;;;;;;;;;;5074473;28;20178;-67
2024/01/29 09:05:29;;;;;;;9.90;6.10;;;;;;;;;;5055945;28;20684;-66
2024/01/29 09:07:55;;;;;;;9.90;5.80;;;;;;;;;;5074360;28;20177;-65
2024/01/29 09:10:21;;;;;;;10.53;6.10;;;;;;;;;;5074360;28;20205;-67
2024/01/29 09:12:47;;;;;;;8.43;5.83;;;;;;;;;;5074141;28;20609;-66
2024/01/29 09:15:13;;;;;;;9.67;5.27;;;;;;;;;;5055035;28;20178;-64
2024/01/29 09:17:40;;;;;;;9.40;6.27;;;;;;;;;;5073987;28;20270;-66
2024/01/29 09:20:08;;;;;;;11.80;6.37;;;;;;;;;;5073653;28;20260;-66
2024/01/29 09:22:33;;;;;;;14.43;7.13;;;;;;;;;;5073748;28;20185;-66
2024/01/29 09:25:00;;;;;;;14.63;7.70;;;;;;;;;;5073500;28;20202;-66
2024/01/29 09:27:26;;;;;;;13.13;7.87;;;;;;;;;;5073607;28;20251;-67
2024/01/29 09:29:52;;;;;;;14.40;8.57;;;;;;;;;;5055621;28;20182;-65
2024/01/29 09:32:18;;;;;;;15.00;7.70;;;;;;;;;;5056304;28;20639;-66
2024/01/29 09:34:44;;;;;;;13.07;8.07;;;;;;;;;;5073370;28;20178;-68
2024/01/29 09:37:10;;;;;;;15.23;8.17;;;;;;;;;;5073690;28;20197;-66
2024/01/29 09:39:36;;;;;;;13.93;8.70;;;;;;;;;;5074074;28;20204;-67
2024/01/29 09:42:06;;;;;;;22.30;10.47;;;;;;;;;;5055841;28;20186;-65
2024/01/29 09:44:37;;;;;;;14.17;8.17;;;;;;;;;;5056267;28;20285;-66
2024/01/29 09:47:05;;;;;;;13.50;8.03;;;;;;;;;;5073610;28;20190;-65
2024/01/29 09:49:31;;;;;;;16.27;8.93;;;;;;;;;;5055159;28;20178;-65
2024/01/29 09:51:57;;;;;;;13.43;7.77;;;;;;;;;;5073136;28;20721;-66
2024/01/29 09:54:23;;;;;;;19.80;8.27;;;;;;;;;;5073229;28;20174;-66
2024/01/29 09:56:49;;;;;;;13.47;6.90;;;;;;;;;;5072992;28;20206;-66
2024/01/29 09:59:14;;;;;;;16.80;7.87;;;;;;;;;;5073560;28;20290;-68
2024/01/29 10:01:41;;;;;;;14.90;8.10;;;;;;;;;;5073145;28;20177;-67
2024/01/29 10:04:07;;;;;;;13.07;7.20;;;;;;;;;;5073032;28;20212;-66
2024/01/29 10:06:33;;;;;;;10.00;6.20;;;;;;;;;;5073008;28;20284;-66
2024/01/29 10:08:59;;;;;;;8.57;6.53;;;;;;;;;;5072961;28;20185;-66
2024/01/29 10:11:25;;;;;;;109.27;53.80;;;;;;;;;;5072947;28;20207;-66
2024/01/29 10:13:58;;;;;;;25.77;15.13;;;;;;;;;;5073703;28;20193;-66
2024/01/29 10:16:23;;;;;;;12.10;6.60;;;;;;;;;;5055599;28;20198;-67
2024/01/29 10:18:59;;;;;;;13.83;6.83;;;;;;;;;;5055021;28;20182;-66
2024/01/29 10:21:25;;;;;;;13.10;6.77;;;;;;;;;;5072678;28;20490;-67
2024/01/29 10:23:58;;;;;;;11.23;6.53;;;;;;;;;;5072566;28;20174;-66
2024/01/29 10:26:24;;;;;;;11.50;7.20;;;;;;;;;;5054173;28;20198;-66
2024/01/29 10:29:06;;;;;;;16.13;7.57;;;;;;;;;;5072603;28;20177;-66
2024/01/29 10:31:33;;;;;;;15.70;9.67;;;;;;;;;;5072369;28;20169;-66
2024/01/29 10:33:59;;;;;;;17.07;9.37;;;;;;;;;;5054153;28;20177;-66
2024/01/29 10:36:25;;;;;;;15.33;8.90;;;;;;;;;;5072287;28;20208;-66
2024/01/29 10:38:51;;;;;;;16.67;9.57;;;;;;;;;;5054419;28;20260;-67
2024/01/29 10:41:21;;;;;;;16.87;9.00;;;;;;;;;;5072413;28;20220;-66
2024/01/29 10:43:51;;;;;;;11.33;7.80;;;;;;;;;;5072425;28;20174;-66
2024/01/29 10:46:26;;;;;;;12.10;6.83;;;;;;;;;;5072004;28;20202;-65
2024/01/29 10:48:53;;;;;;;9.57;6.40;;;;;;;;;;5072161;28;20528;-64
2024/01/29 10:51:20;;;;;;;8.87;6.27;;;;;;;;;;5054140;28;20184;-66
2024/01/29 10:53:47;;;;;;;9.00;6.63;;;;;;;;;;5053989;28;20182;-66
2024/01/29 10:56:14;;;;;;;9.97;7.00;;;;;;;;;;5071942;28;20233;-64
2024/01/29 10:58:40;;;;;;;11.10;6.57;;;;;;;;;;5072047;28;20268;-66
2024/01/29 11:01:06;;;;;;;14.60;7.83;;;;;;;;;;5072031;28;20703;-65
2024/01/29 11:03:33;;;;;;;13.43;7.57;;;;;;;;;;5054231;28;20593;-65
2024/01/29 11:06:02;;;;;;;14.73;7.13;;;;;;;;;;5053791;28;20217;-66
2024/01/29 11:08:31;;;;;;;11.03;6.73;;;;;;;;;;5072465;28;20620;-66
2024/01/29 11:10:57;;;;;;;12.30;6.90;;;;;;;;;;5071959;28;20222;-65
2024/01/29 11:13:23;;;;;;;9.50;6.50;;;;;;;;;;5072278;28;20174;-65
2024/01/29 11:15:50;;;;;;;10.67;6.37;;;;;;;;;;5071680;28;20679;-65
2024/01/29 11:18:16;;;;;;;8.50;5.90;;;;;;;;;;5053860;28;20227;-65
2024/01/29 11:20:42;;;;;;;8.97;6.27;;;;;;;;;;5071939;28;20273;-65
2024/01/29 11:23:10;;;;;;;12.33;6.07;;;;;;;;;;5053799;28;20217;-66
2024/01/29 11:25:37;;;;;;;10.33;6.80;;;;;;;;;;5071710;28;20198;-65
2024/01/29 11:28:03;;;;;;;10.63;6.57;;;;;;;;;;5071911;28;20181;-66
2024/01/29 11:30:29;;;;;;;9.63;6.87;;;;;;;;;;5071733;28;20197;-65
2024/01/29 11:32:56;;;;;;;14.47;6.80;;;;;;;;;;5072057;28;20182;-65
2024/01/29 11:35:30;;;;;;;11.97;6.87;;;;;;;;;;5053947;28;20209;-65
2024/01/29 11:38:05;;;;;;;6.90;6.07;;;;;;;;;;5073837;28;20166;-63
2024/01/29 11:40:34;;;;;;;11.27;6.77;;;;;;;;;;5075874;28;20193;-63
2024/01/29 11:43:01;;;;;;;8.97;6.57;;;;;;;;;;5075552;28;20220;-65
2024/01/29 11:45:30;;;;;;;12.17;6.50;;;;;;;;;;5058316;28;20201;-65
2024/01/29 11:47:56;;;;;;;10.40;6.43;;;;;;;;;;5075676;28;20177;-65
2024/01/29 11:50:24;;;;;;;9.87;6.67;;;;;;;;;;5057629;28;20199;-64
2024/01/29 11:52:50;;;;;;;11.73;6.73;;;;;;;;;;5075777;28;20181;-64
2024/01/29 11:55:17;;;;;;;8.63;6.07;;;;;;;;;;5057582;28;20182;-64
2024/01/29 11:57:47;;;;;;;10.43;6.40;;;;;;;;;;5057384;28;20233;-67
2024/01/29 12:00:18;;;;;;;9.13;6.43;;;;;;;;;;5058215;28;20193;-65
2024/01/29 12:02:44;;;;;;;12.00;7.53;;;;;;;;;;5075701;28;20241;-64
2024/01/29 12:05:13;;;;;;;10.07;6.30;;;;;;;;;;5057294;28;20202;-66
2024/01/29 12:07:39;;;;;;;8.37;6.30;;;;;;;;;;5056944;28;20626;-65
2024/01/29 12:10:05;;;;;;;11.47;6.97;;;;;;;;;;5075635;28;20577;-65
2024/01/29 12:12:31;;;;;;;11.97;6.40;;;;;;;;;;5075265;28;20181;-65
2024/01/29 12:14:57;;;;;;;8.43;6.43;;;;;;;;;;5075012;28;20231;-65
2024/01/29 12:17:24;;;;;;;12.37;6.60;;;;;;;;;;5056789;28;20201;-65
2024/01/29 12:19:51;;;;;;;8.23;6.17;;;;;;;;;;5056891;28;20181;-65
2024/01/29 12:22:17;;;;;;;8.97;6.27;;;;;;;;;;5056856;28;20536;-65
2024/01/29 12:24:43;;;;;;;7.50;6.57;;;;;;;;;;5075028;28;20212;-64
2024/01/29 12:27:09;;;;;;;8.27;6.20;;;;;;;;;;5074696;28;20201;-65
2024/01/29 12:29:36;;;;;;;8.97;6.73;;;;;;;;;;5056716;28;20219;-64
2024/01/29 12:32:09;;;;;;;8.83;6.80;;;;;;;;;;5074568;28;20178;-65
2024/01/29 12:34:42;;;;;;;11.77;6.93;;;;;;;;;;5074623;28;20186;-64
2024/01/29 12:37:17;;;;;;;9.83;7.30;;;;;;;;;;5056736;28;20205;-65
2024/01/29 12:39:43;;;;;;;9.53;7.40;;;;;;;;;;5056654;28;20184;-65
2024/01/29 12:42:15;;;;;;;10.53;9.10;;;;;;;;;;5074563;28;20174;-65
2024/01/29 12:44:41;;;;;;;12.67;6.27;;;;;;;;;;5074565;28;20676;-65
2024/01/29 12:47:12;;;;;;;11.03;7.00;;;;;;;;;;5074344;28;20200;-65
2024/01/29 12:49:38;;;;;;;11.07;6.47;;;;;;;;;;5056187;28;20319;-65
2024/01/29 12:52:04;;;;;;;11.83;8.47;;;;;;;;;;5056331;28;20178;-65
2024/01/29 12:54:31;;;;;;;8.57;5.90;;;;;;;;;;5074054;28;20261;-65
2024/01/29 12:56:56;;;;;;;7.33;6.03;;;;;;;;;;5055863;28;20205;-65
2024/01/29 12:59:22;;;;;;;12.63;6.20;;;;;;;;;;5074465;28;20704;-65
2024/01/29 13:01:48;;;;;;;8.70;7.43;;;;;;;;;;5074271;28;20536;-66
2024/01/29 13:04:16;;;;;;;8.03;6.03;;;;;;;;;;5055875;28;20233;-65
2024/01/29 13:06:42;;;;;;;8.50;6.40;;;;;;;;;;5080502;22;20256;-71
2024/01/29 13:09:08;;;;;;;9.80;5.60;;;;;;;;;;5057920;28;20178;-70
2024/01/29 13:11:34;;;;;;;9.83;6.80;;;;;;;;;;5075963;28;20182;-70
2024/01/29 13:14:00;;;;;;;9.33;6.80;;;;;;;;;;5057903;28;20257;-70
2024/01/29 13:16:26;;;;;;;8.23;6.10;;;;;;;;;;5075747;28;20668;-69
2024/01/29 13:18:52;;;;;;;10.43;6.57;;;;;;;;;;5075739;28;20180;-69
2024/01/29 13:21:21;;;;;;;7.67;5.93;;;;;;;;;;5075868;28;20170;-70
2024/01/29 13:23:47;;;;;;;9.00;7.10;;;;;;;;;;5075530;28;20188;-70
2024/01/29 13:26:13;;;;;;;11.10;6.70;;;;;;;;;;5075638;28;20197;-71
2024/01/29 13:28:39;;;;;;;13.60;6.57;;;;;;;;;;5075320;28;20170;-70
2024/01/29 13:31:05;;;;;;;9.80;6.60;;;;;;;;;;5056927;28;20173;-71
2024/01/29 13:33:31;;;;;;;7.30;6.43;;;;;;;;;;5075085;28;20178;-71
2024/01/29 13:35:58;;;;;;;10.43;7.00;;;;;;;;;;5057321;28;20184;-71
2024/01/29 13:38:24;;;;;;;10.87;6.53;;;;;;;;;;5074955;28;20244;-71
2024/01/29 13:40:50;;;;;;;12.03;6.80;;;;;;;;;;5075196;28;20706;-71
2024/01/29 13:43:17;;;;;;;9.77;7.03;;;;;;;;;;5057061;28;20181;-71
2024/01/29 13:45:43;;;;;;;13.27;7.43;;;;;;;;;;5056969;28;20206;-71
2024/01/29 13:48:09;;;;;;;10.63;6.90;;;;;;;;;;5074624;28;20216;-70
2024/01/29 13:50:36;;;;;;;15.83;9.40;;;;;;;;;;5056901;28;20205;-71
2024/01/29 13:53:02;;;;;;;21.43;12.33;;;;;;;;;;5074894;28;20178;-70
2024/01/29 13:55:28;;;;;;;14.50;10.00;;;;;;;;;;5056520;28;20723;-70
2024/01/29 13:57:54;;;;;;;9.37;7.83;;;;;;;;;;5074528;28;20202;-70
2024/01/29 14:00:20;;;;;;;12.97;7.67;;;;;;;;;;5074002;28;20256;-71
2024/01/29 14:02:46;;;;;;;11.87;7.43;;;;;;;;;;5074670;28;20205;-71
2024/01/29 14:05:12;;;;;;;8.03;6.87;;;;;;;;;;5056279;28;20691;-71
2024/01/29 14:07:38;;;;;;;13.27;8.10;;;;;;;;;;5056265;28;20224;-71
2024/01/29 14:10:04;;;;;;;10.70;6.90;;;;;;;;;;5074326;28;20176;-71
2024/01/29 14:12:30;;;;;;;17.73;14.93;;;;;;;;;;5074343;28;20185;-71
2024/01/29 14:15:01;;;;;;;12.57;7.57;;;;;;;;;;5074445;28;20181;-71
2024/01/29 14:17:27;;;;;;;13.77;7.53;;;;;;;;;;5057115;28;20202;-72
2024/01/29 14:19:53;;;;;;;10.63;8.43;;;;;;;;;;5074533;28;20177;-70
2024/01/29 14:22:20;;;;;;;11.97;10.63;;;;;;;;;;5074538;28;20596;-70
2024/01/29 14:24:46;;;;;;;11.70;7.77;;;;;;;;;;5056251;28;20201;-70
2024/01/29 14:27:12;;;;;;;20.37;15.47;;;;;;;;;;5074389;28;20205;-70
2024/01/29 14:29:38;;;;;;;23.80;17.67;;;;;;;;;;5074324;28;20200;-70
2024/01/29 14:32:04;;;;;;;11.80;8.73;;;;;;;;;;5056577;28;20177;-70
2024/01/29 14:34:30;;;;;;;13.87;8.17;;;;;;;;;;5056218;28;20182;-70